Detall de PIREP

Printer-friendly versionPDF version

[2014/10/22 08:13:00]
Flight IATA:CT3305
Pilot Number:042
Company ICAO:CAT
Aircraft Type:B463/A
PAX:29
Aircraft Registration:PAX
Departing Airport: GMMN
Destination Airport: LEZG
Alternate Airport:LEGE
Online: VATSIM
Route:AGDAL G5 TOLSI UG5 KORIS UL27 MAR UN871 RONKO UM601 SURCO
Flight Level:F340
No Slew and time accel
No pause
Crash detect
Detect pilot in Cockpit between each 30 and 45 minutes
08:13 Zero fuel Weight: 80446 Lbs, Fuel Weight: 22753 Lbs
08:13 VATSIM:GMMN 220600Z 00000KT 9999 SCT010 16/11 Q1021 NOSIG
08:13 VATSIM:LEZG 220600Z 31021KT CAVOK 14/08 Q1027
08:21 Parking Brakes off
08:27 Take-off
08:27 Take off Weight: 102279 Lbs
08:27 Wind: 092º @ 000 Knots Heading: 344º
08:27 POS N33º 22´ 08´´ W007º 35´ 18´´
08:27 Flaps:2 at 154 Knots
08:27 Gear Up: 154 Knots
08:28 Flaps:1 at 145 Knots
08:28 Flaps:0 at 223 Knots
08:42 Wind:237º@004 Knots Heading: 026º Ground Speed: 371 Knots Altitude 28398 ft
08:47 TOC
08:47 Fuel Weight: 18849 Lb
08:54 TOD
08:54 Fuel Weight: 18404 Lb
08:54 TOC
08:54 Fuel Weight: 18393 Lb
08:57 Wind:235º@011 Knots Heading: 027º Ground Speed: 419 Knots Altitude 34261 ft
09:12 Wind:301º@017 Knots Heading: 019º Ground Speed: 405 Knots Altitude 34311 ft
09:27 Wind:322º@030 Knots Heading: 019º Ground Speed: 400 Knots Altitude 34399 ft
09:42 Wind:319º@039 Knots Heading: 028º Ground Speed: 394 Knots Altitude 34432 ft
09:57 Wind:321º@054 Knots Heading: 027º Ground Speed: 387 Knots Altitude 34452 ft
10:01 TOD
10:01 Fuel Weight: 14173 Lb
10:12 Wind:333º@049 Knots Heading: 170º Ground Speed: 333 Knots Altitude 16984 ft
10:19 Flaps:1 at 190 Knots
10:22 Flaps:2 at 174 Knots
10:23 Flaps:3 at 174 Knots
10:23 Gear Down: 174 Knots
10:23 Flaps:4 at 175 Knots
10:27 Wind:304º@023 Knots Heading: 300º GroundSpeed: 106 Knots Altitude 1197 ft
10:27 TouchDown:Rate -110 ft/min Speed: 123 Knots
10:28 VATSIM:LEZG 220800Z 30024KT 9999 FEW040 14/08 Q1028
10:28 Land
10:28 Wind:299º@024 Knots
10:28 Heading: 299º
10:28 Flight Duration: 02:01
10:28 Landing Weight: 93589 Lbs
10:28 POS N41º 39´ 40´´ W001º 01´ 18´´
10:31 Parking brakes on
10:31 Block to Block Duration: 02:10
10:31 Final Fuel: 12780 Lbls
10:31 Spent Fuel: 9973 Lbls
10:31 Flight Length: 721 NM
10:31 TOD Land Length: 117 NM

Exportar CSV

Powered by Drupal - Modified by Danger4k